sensor_id;sensor_type;location;lat;lon;timestamp;P1;durP1;ratioP1;P2;durP2;ratioP2
20044;SDS011;10183;47.808;9.476;2023-10-31T00:00:34;12.93;;;12.23;;
20044;SDS011;10183;47.808;9.476;2023-10-31T00:03:20;13.77;;;12.97;;
20044;SDS011;10183;47.808;9.476;2023-10-31T00:06:06;14.33;;;13.53;;
20044;SDS011;10183;47.808;9.476;2023-10-31T00:08:52;14.13;;;13.33;;
20044;SDS011;10183;47.808;9.476;2023-10-31T00:11:39;13.90;;;13.10;;
20044;SDS011;10183;47.808;9.476;2023-10-31T00:14:28;13.90;;;13.10;;
20044;SDS011;10183;47.808;9.476;2023-10-31T00:17:14;15.20;;;14.40;;
20044;SDS011;10183;47.808;9.476;2023-10-31T00:20:00;15.77;;;14.87;;
20044;SDS011;10183;47.808;9.476;2023-10-31T00:22:46;15.90;;;15.00;;
20044;SDS011;10183;47.808;9.476;2023-10-31T00:25:32;15.10;;;14.20;;
20044;SDS011;10183;47.808;9.476;2023-10-31T00:28:19;14.63;;;13.83;;
20044;SDS011;10183;47.808;9.476;2023-10-31T00:31:05;14.53;;;13.73;;
20044;SDS011;10183;47.808;9.476;2023-10-31T00:33:53;14.43;;;13.60;;
20044;SDS011;10183;47.808;9.476;2023-10-31T00:36:40;13.80;;;13.00;;
20044;SDS011;10183;47.808;9.476;2023-10-31T00:39:26;14.10;;;13.30;;
20044;SDS011;10183;47.808;9.476;2023-10-31T00:42:12;13.27;;;12.57;;
20044;SDS011;10183;47.808;9.476;2023-10-31T00:44:59;13.90;;;13.10;;
20044;SDS011;10183;47.808;9.476;2023-10-31T00:47:45;14.27;;;13.47;;
20044;SDS011;10183;47.808;9.476;2023-10-31T00:50:31;14.20;;;13.40;;
20044;SDS011;10183;47.808;9.476;2023-10-31T00:53:17;14.00;;;13.20;;
20044;SDS011;10183;47.808;9.476;2023-10-31T00:56:03;13.30;;;12.60;;
20044;SDS011;10183;47.808;9.476;2023-10-31T00:58:50;13.00;;;12.30;;
20044;SDS011;10183;47.808;9.476;2023-10-31T01:01:36;13.43;;;12.73;;
20044;SDS011;10183;47.808;9.476;2023-10-31T01:04:22;13.30;;;12.60;;
20044;SDS011;10183;47.808;9.476;2023-10-31T01:07:10;13.00;;;12.40;;
20044;SDS011;10183;47.808;9.476;2023-10-31T01:09:57;13.20;;;12.50;;
20044;SDS011;10183;47.808;9.476;2023-10-31T01:12:43;13.63;;;12.93;;
20044;SDS011;10183;47.808;9.476;2023-10-31T01:15:29;14.47;;;13.63;;
20044;SDS011;10183;47.808;9.476;2023-10-31T01:18:15;13.57;;;12.87;;
20044;SDS011;10183;47.808;9.476;2023-10-31T01:21:01;13.60;;;12.90;;
20044;SDS011;10183;47.808;9.476;2023-10-31T01:23:47;13.20;;;12.50;;
20044;SDS011;10183;47.808;9.476;2023-10-31T01:26:34;12.70;;;12.00;;
20044;SDS011;10183;47.808;9.476;2023-10-31T01:29:21;12.97;;;12.27;;
20044;SDS011;10183;47.808;9.476;2023-10-31T01:32:07;12.70;;;12.00;;
20044;SDS011;10183;47.808;9.476;2023-10-31T01:34:53;14.23;;;13.43;;
20044;SDS011;10183;47.808;9.476;2023-10-31T01:37:39;14.63;;;13.70;;
20044;SDS011;10183;47.808;9.476;2023-10-31T01:40:25;14.37;;;13.47;;
20044;SDS011;10183;47.808;9.476;2023-10-31T01:43:12;13.23;;;12.53;;
20044;SDS011;10183;47.808;9.476;2023-10-31T01:45:58;15.43;;;14.53;;
20044;SDS011;10183;47.808;9.476;2023-10-31T01:48:44;14.73;;;13.80;;
20044;SDS011;10183;47.808;9.476;2023-10-31T01:51:31;15.73;;;14.73;;
20044;SDS011;10183;47.808;9.476;2023-10-31T01:54:17;14.93;;;14.03;;
20044;SDS011;10183;47.808;9.476;2023-10-31T01:57:04;14.70;;;13.80;;
20044;SDS011;10183;47.808;9.476;2023-10-31T01:59:51;14.43;;;13.63;;
20044;SDS011;10183;47.808;9.476;2023-10-31T02:02:37;14.10;;;13.30;;
20044;SDS011;10183;47.808;9.476;2023-10-31T02:05:27;15.00;;;14.10;;
20044;SDS011;10183;47.808;9.476;2023-10-31T02:08:14;15.80;;;14.80;;
20044;SDS011;10183;47.808;9.476;2023-10-31T02:11:00;14.17;;;13.37;;
20044;SDS011;10183;47.808;9.476;2023-10-31T02:13:46;16.83;;;15.73;;
20044;SDS011;10183;47.808;9.476;2023-10-31T02:16:32;16.53;;;15.53;;
20044;SDS011;10183;47.808;9.476;2023-10-31T02:19:20;16.40;;;15.40;;
20044;SDS011;10183;47.808;9.476;2023-10-31T02:22:06;16.90;;;15.90;;
20044;SDS011;10183;47.808;9.476;2023-10-31T02:24:52;16.00;;;15.10;;
20044;SDS011;10183;47.808;9.476;2023-10-31T02:27:38;15.17;;;14.27;;
20044;SDS011;10183;47.808;9.476;2023-10-31T02:30:24;16.60;;;15.60;;
20044;SDS011;10183;47.808;9.476;2023-10-31T02:33:10;16.40;;;15.40;;
20044;SDS011;10183;47.808;9.476;2023-10-31T02:35:56;15.37;;;14.47;;
20044;SDS011;10183;47.808;9.476;2023-10-31T02:38:42;15.90;;;15.00;;
20044;SDS011;10183;47.808;9.476;2023-10-31T02:41:28;15.80;;;14.90;;
20044;SDS011;10183;47.808;9.476;2023-10-31T02:44:14;14.90;;;13.90;;
20044;SDS011;10183;47.808;9.476;2023-10-31T02:47:01;15.43;;;14.53;;
20044;SDS011;10183;47.808;9.476;2023-10-31T02:49:47;15.63;;;14.73;;
20044;SDS011;10183;47.808;9.476;2023-10-31T02:52:33;17.00;;;16.00;;
20044;SDS011;10183;47.808;9.476;2023-10-31T02:55:19;16.97;;;15.97;;
20044;SDS011;10183;47.808;9.476;2023-10-31T02:58:05;16.97;;;15.67;;
20044;SDS011;10183;47.808;9.476;2023-10-31T03:00:50;16.00;;;15.10;;
20044;SDS011;10183;47.808;9.476;2023-10-31T03:03:36;16.47;;;15.53;;
20044;SDS011;10183;47.808;9.476;2023-10-31T03:06:22;15.67;;;14.77;;
20044;SDS011;10183;47.808;9.476;2023-10-31T03:09:08;16.10;;;15.20;;
20044;SDS011;10183;47.808;9.476;2023-10-31T03:11:54;16.47;;;15.57;;
20044;SDS011;10183;47.808;9.476;2023-10-31T03:14:40;16.10;;;15.20;;
20044;SDS011;10183;47.808;9.476;2023-10-31T03:17:27;18.10;;;17.00;;
20044;SDS011;10183;47.808;9.476;2023-10-31T03:20:13;16.20;;;15.30;;
20044;SDS011;10183;47.808;9.476;2023-10-31T03:22:59;16.60;;;15.60;;
20044;SDS011;10183;47.808;9.476;2023-10-31T03:25:45;14.60;;;13.80;;
20044;SDS011;10183;47.808;9.476;2023-10-31T03:28:31;14.83;;;14.03;;
20044;SDS011;10183;47.808;9.476;2023-10-31T03:31:17;15.70;;;14.80;;
20044;SDS011;10183;47.808;9.476;2023-10-31T03:34:03;15.67;;;14.87;;
20044;SDS011;10183;47.808;9.476;2023-10-31T03:36:49;16.07;;;15.07;;
20044;SDS011;10183;47.808;9.476;2023-10-31T03:39:35;15.80;;;14.80;;
20044;SDS011;10183;47.808;9.476;2023-10-31T03:42:21;17.47;;;16.40;;
20044;SDS011;10183;47.808;9.476;2023-10-31T03:45:07;16.00;;;15.10;;
20044;SDS011;10183;47.808;9.476;2023-10-31T03:47:53;16.73;;;15.77;;
20044;SDS011;10183;47.808;9.476;2023-10-31T03:50:39;15.83;;;14.97;;
20044;SDS011;10183;47.808;9.476;2023-10-31T03:53:25;15.83;;;15.03;;
20044;SDS011;10183;47.808;9.476;2023-10-31T03:56:11;19.00;;;17.80;;
20044;SDS011;10183;47.808;9.476;2023-10-31T03:58:57;16.50;;;15.50;;
20044;SDS011;10183;47.808;9.476;2023-10-31T04:01:43;17.63;;;16.53;;
20044;SDS011;10183;47.808;9.476;2023-10-31T04:04:29;18.20;;;17.10;;
20044;SDS011;10183;47.808;9.476;2023-10-31T04:07:15;18.30;;;17.07;;
20044;SDS011;10183;47.808;9.476;2023-10-31T04:10:01;20.00;;;18.80;;
20044;SDS011;10183;47.808;9.476;2023-10-31T04:12:47;20.03;;;18.83;;
20044;SDS011;10183;47.808;9.476;2023-10-31T04:15:33;19.07;;;17.77;;
20044;SDS011;10183;47.808;9.476;2023-10-31T04:18:20;18.27;;;17.27;;
20044;SDS011;10183;47.808;9.476;2023-10-31T04:21:06;18.53;;;17.50;;
20044;SDS011;10183;47.808;9.476;2023-10-31T04:23:52;17.90;;;16.83;;
20044;SDS011;10183;47.808;9.476;2023-10-31T04:26:40;16.87;;;15.87;;
20044;SDS011;10183;47.808;9.476;2023-10-31T04:29:26;17.87;;;16.87;;
20044;SDS011;10183;47.808;9.476;2023-10-31T04:32:12;18.83;;;17.73;;
20044;SDS011;10183;47.808;9.476;2023-10-31T04:34:58;15.80;;;14.90;;
20044;SDS011;10183;47.808;9.476;2023-10-31T04:37:44;17.43;;;16.33;;
20044;SDS011;10183;47.808;9.476;2023-10-31T04:40:30;17.30;;;16.30;;
20044;SDS011;10183;47.808;9.476;2023-10-31T04:43:16;15.97;;;15.07;;
20044;SDS011;10183;47.808;9.476;2023-10-31T04:46:02;17.80;;;16.70;;
20044;SDS011;10183;47.808;9.476;2023-10-31T04:48:48;17.83;;;16.93;;
20044;SDS011;10183;47.808;9.476;2023-10-31T04:51:37;19.13;;;18.13;;
20044;SDS011;10183;47.808;9.476;2023-10-31T04:54:23;19.10;;;18.10;;
20044;SDS011;10183;47.808;9.476;2023-10-31T04:57:09;20.47;;;19.37;;
20044;SDS011;10183;47.808;9.476;2023-10-31T04:59:56;20.77;;;19.37;;
20044;SDS011;10183;47.808;9.476;2023-10-31T05:02:44;18.00;;;17.00;;
20044;SDS011;10183;47.808;9.476;2023-10-31T05:05:30;16.53;;;15.63;;
20044;SDS011;10183;47.808;9.476;2023-10-31T05:08:16;20.27;;;18.90;;
20044;SDS011;10183;47.808;9.476;2023-10-31T05:11:02;21.57;;;20.37;;
20044;SDS011;10183;47.808;9.476;2023-10-31T05:13:48;19.47;;;18.37;;
20044;SDS011;10183;47.808;9.476;2023-10-31T05:16:38;16.57;;;15.57;;
20044;SDS011;10183;47.808;9.476;2023-10-31T05:19:28;17.50;;;16.50;;
20044;SDS011;10183;47.808;9.476;2023-10-31T05:22:14;14.80;;;13.90;;
20044;SDS011;10183;47.808;9.476;2023-10-31T05:24:59;15.03;;;14.13;;
20044;SDS011;10183;47.808;9.476;2023-10-31T05:27:45;18.63;;;17.63;;
20044;SDS011;10183;47.808;9.476;2023-10-31T05:30:31;17.87;;;16.87;;
20044;SDS011;10183;47.808;9.476;2023-10-31T05:33:17;15.63;;;14.73;;
20044;SDS011;10183;47.808;9.476;2023-10-31T05:36:04;16.50;;;15.50;;
20044;SDS011;10183;47.808;9.476;2023-10-31T05:38:50;16.27;;;15.27;;
20044;SDS011;10183;47.808;9.476;2023-10-31T05:41:36;16.57;;;15.67;;
20044;SDS011;10183;47.808;9.476;2023-10-31T05:44:22;16.60;;;15.70;;
20044;SDS011;10183;47.808;9.476;2023-10-31T05:47:08;16.97;;;15.60;;
20044;SDS011;10183;47.808;9.476;2023-10-31T05:49:55;15.03;;;14.23;;
20044;SDS011;10183;47.808;9.476;2023-10-31T05:52:41;16.60;;;15.60;;
20044;SDS011;10183;47.808;9.476;2023-10-31T05:55:27;16.10;;;14.93;;
20044;SDS011;10183;47.808;9.476;2023-10-31T05:58:12;15.07;;;14.27;;
20044;SDS011;10183;47.808;9.476;2023-10-31T06:00:58;16.10;;;15.20;;
20044;SDS011;10183;47.808;9.476;2023-10-31T06:03:45;16.70;;;15.70;;
20044;SDS011;10183;47.808;9.476;2023-10-31T06:06:31;15.50;;;14.50;;
20044;SDS011;10183;47.808;9.476;2023-10-31T06:09:18;16.37;;;15.07;;
20044;SDS011;10183;47.808;9.476;2023-10-31T06:12:04;15.57;;;14.57;;
20044;SDS011;10183;47.808;9.476;2023-10-31T06:14:50;26.00;;;23.70;;
20044;SDS011;10183;47.808;9.476;2023-10-31T06:17:36;27.60;;;25.10;;
20044;SDS011;10183;47.808;9.476;2023-10-31T06:20:22;23.80;;;21.70;;
20044;SDS011;10183;47.808;9.476;2023-10-31T06:23:09;21.47;;;19.47;;
20044;SDS011;10183;47.808;9.476;2023-10-31T06:25:55;22.67;;;20.73;;
20044;SDS011;10183;47.808;9.476;2023-10-31T06:28:41;22.77;;;20.67;;
20044;SDS011;10183;47.808;9.476;2023-10-31T06:31:27;18.50;;;16.80;;
20044;SDS011;10183;47.808;9.476;2023-10-31T06:34:13;17.90;;;16.10;;
20044;SDS011;10183;47.808;9.476;2023-10-31T06:37:00;18.70;;;17.20;;
20044;SDS011;10183;47.808;9.476;2023-10-31T06:39:46;18.83;;;17.23;;
20044;SDS011;10183;47.808;9.476;2023-10-31T06:42:32;18.27;;;16.77;;
20044;SDS011;10183;47.808;9.476;2023-10-31T06:45:18;17.23;;;15.83;;
20044;SDS011;10183;47.808;9.476;2023-10-31T06:48:04;17.60;;;16.20;;
20044;SDS011;10183;47.808;9.476;2023-10-31T06:50:52;16.90;;;15.60;;
20044;SDS011;10183;47.808;9.476;2023-10-31T06:53:38;17.77;;;16.37;;
20044;SDS011;10183;47.808;9.476;2023-10-31T06:56:24;17.90;;;16.50;;
20044;SDS011;10183;47.808;9.476;2023-10-31T06:59:10;17.30;;;16.00;;
20044;SDS011;10183;47.808;9.476;2023-10-31T07:01:56;16.30;;;15.00;;
20044;SDS011;10183;47.808;9.476;2023-10-31T07:04:42;16.70;;;15.40;;
20044;SDS011;10183;47.808;9.476;2023-10-31T07:07:28;17.63;;;16.30;;
20044;SDS011;10183;47.808;9.476;2023-10-31T07:10:14;19.10;;;17.63;;
20044;SDS011;10183;47.808;9.476;2023-10-31T07:13:00;19.10;;;17.70;;
20044;SDS011;10183;47.808;9.476;2023-10-31T07:15:46;19.53;;;18.03;;
20044;SDS011;10183;47.808;9.476;2023-10-31T07:18:32;18.37;;;16.97;;
20044;SDS011;10183;47.808;9.476;2023-10-31T07:21:18;20.33;;;18.83;;
20044;SDS011;10183;47.808;9.476;2023-10-31T07:24:04;20.40;;;18.80;;
20044;SDS011;10183;47.808;9.476;2023-10-31T07:26:54;20.20;;;18.60;;
20044;SDS011;10183;47.808;9.476;2023-10-31T07:29:40;21.20;;;19.50;;
20044;SDS011;10183;47.808;9.476;2023-10-31T07:32:26;22.60;;;20.70;;
20044;SDS011;10183;47.808;9.476;2023-10-31T07:35:12;21.00;;;19.40;;
20044;SDS011;10183;47.808;9.476;2023-10-31T07:37:58;22.43;;;20.73;;
20044;SDS011;10183;47.808;9.476;2023-10-31T07:40:44;20.60;;;19.07;;
20044;SDS011;10183;47.808;9.476;2023-10-31T07:43:30;21.60;;;20.00;;
20044;SDS011;10183;47.808;9.476;2023-10-31T07:46:16;20.60;;;19.00;;
20044;SDS011;10183;47.808;9.476;2023-10-31T07:49:02;20.63;;;18.93;;
20044;SDS011;10183;47.808;9.476;2023-10-31T07:51:48;20.97;;;19.37;;
20044;SDS011;10183;47.808;9.476;2023-10-31T07:54:34;19.80;;;18.20;;
20044;SDS011;10183;47.808;9.476;2023-10-31T07:57:20;21.80;;;20.10;;
20044;SDS011;10183;47.808;9.476;2023-10-31T08:00:09;20.00;;;18.40;;
20044;SDS011;10183;47.808;9.476;2023-10-31T08:02:56;20.90;;;19.20;;
20044;SDS011;10183;47.808;9.476;2023-10-31T08:05:42;21.93;;;20.23;;
20044;SDS011;10183;47.808;9.476;2023-10-31T08:08:28;23.13;;;21.33;;
20044;SDS011;10183;47.808;9.476;2023-10-31T08:11:14;22.30;;;20.50;;
20044;SDS011;10183;47.808;9.476;2023-10-31T08:14:03;21.57;;;19.97;;
20044;SDS011;10183;47.808;9.476;2023-10-31T08:16:49;24.07;;;22.17;;
20044;SDS011;10183;47.808;9.476;2023-10-31T08:19:35;22.20;;;20.40;;
20044;SDS011;10183;47.808;9.476;2023-10-31T08:22:21;21.80;;;20.03;;
20044;SDS011;10183;47.808;9.476;2023-10-31T08:25:07;23.83;;;21.83;;
20044;SDS011;10183;47.808;9.476;2023-10-31T08:27:54;24.70;;;22.50;;
20044;SDS011;10183;47.808;9.476;2023-10-31T08:30:40;23.17;;;21.27;;
20044;SDS011;10183;47.808;9.476;2023-10-31T08:33:26;20.83;;;19.03;;
20044;SDS011;10183;47.808;9.476;2023-10-31T08:36:11;21.17;;;19.47;;
20044;SDS011;10183;47.808;9.476;2023-10-31T08:38:57;22.37;;;20.57;;
20044;SDS011;10183;47.808;9.476;2023-10-31T08:41:53;22.13;;;20.33;;
20044;SDS011;10183;47.808;9.476;2023-10-31T08:44:40;20.50;;;18.83;;
20044;SDS011;10183;47.808;9.476;2023-10-31T08:47:27;22.63;;;20.77;;
20044;SDS011;10183;47.808;9.476;2023-10-31T08:50:13;22.30;;;20.50;;
20044;SDS011;10183;47.808;9.476;2023-10-31T08:52:59;20.83;;;19.13;;
20044;SDS011;10183;47.808;9.476;2023-10-31T08:55:45;22.80;;;20.90;;
20044;SDS011;10183;47.808;9.476;2023-10-31T08:58:31;21.57;;;19.87;;
20044;SDS011;10183;47.808;9.476;2023-10-31T09:01:17;19.83;;;18.13;;
20044;SDS011;10183;47.808;9.476;2023-10-31T09:04:04;21.57;;;19.77;;
20044;SDS011;10183;47.808;9.476;2023-10-31T09:06:50;21.60;;;19.80;;
20044;SDS011;10183;47.808;9.476;2023-10-31T09:09:36;22.27;;;20.37;;
20044;SDS011;10183;47.808;9.476;2023-10-31T09:12:22;21.73;;;19.90;;
20044;SDS011;10183;47.808;9.476;2023-10-31T09:15:07;24.83;;;22.73;;
20044;SDS011;10183;47.808;9.476;2023-10-31T09:17:54;25.37;;;23.27;;
20044;SDS011;10183;47.808;9.476;2023-10-31T09:20:41;24.83;;;22.73;;
20044;SDS011;10183;47.808;9.476;2023-10-31T09:23:26;21.70;;;20.00;;
20044;SDS011;10183;47.808;9.476;2023-10-31T09:26:13;21.63;;;19.77;;
20044;SDS011;10183;47.808;9.476;2023-10-31T09:28:59;22.80;;;20.90;;
20044;SDS011;10183;47.808;9.476;2023-10-31T09:31:45;23.93;;;21.93;;
20044;SDS011;10183;47.808;9.476;2023-10-31T09:34:32;23.57;;;21.47;;
20044;SDS011;10183;47.808;9.476;2023-10-31T09:37:18;22.80;;;20.90;;
20044;SDS011;10183;47.808;9.476;2023-10-31T09:40:04;25.13;;;23.03;;
20044;SDS011;10183;47.808;9.476;2023-10-31T09:42:51;21.80;;;20.10;;
20044;SDS011;10183;47.808;9.476;2023-10-31T09:45:37;21.87;;;19.90;;
20044;SDS011;10183;47.808;9.476;2023-10-31T09:48:23;22.13;;;20.33;;
20044;SDS011;10183;47.808;9.476;2023-10-31T09:51:09;24.00;;;22.00;;
20044;SDS011;10183;47.808;9.476;2023-10-31T09:53:56;22.20;;;20.40;;
20044;SDS011;10183;47.808;9.476;2023-10-31T09:56:44;24.03;;;22.13;;
20044;SDS011;10183;47.808;9.476;2023-10-31T09:59:30;22.03;;;20.33;;
20044;SDS011;10183;47.808;9.476;2023-10-31T10:02:16;20.13;;;18.53;;
20044;SDS011;10183;47.808;9.476;2023-10-31T10:05:03;20.87;;;19.17;;
20044;SDS011;10183;47.808;9.476;2023-10-31T10:07:50;20.77;;;19.07;;
20044;SDS011;10183;47.808;9.476;2023-10-31T10:10:36;23.60;;;21.80;;
20044;SDS011;10183;47.808;9.476;2023-10-31T10:13:21;20.50;;;18.90;;
20044;SDS011;10183;47.808;9.476;2023-10-31T10:16:08;24.07;;;22.27;;
20044;SDS011;10183;47.808;9.476;2023-10-31T10:18:55;20.70;;;19.10;;
20044;SDS011;10183;47.808;9.476;2023-10-31T10:21:50;19.93;;;18.43;;
20044;SDS011;10183;47.808;9.476;2023-10-31T10:24:41;20.30;;;18.80;;
20044;SDS011;10183;47.808;9.476;2023-10-31T10:27:27;18.10;;;16.80;;
20044;SDS011;10183;47.808;9.476;2023-10-31T10:30:13;19.87;;;18.37;;
20044;SDS011;10183;47.808;9.476;2023-10-31T10:33:00;20.67;;;19.07;;
20044;SDS011;10183;47.808;9.476;2023-10-31T10:35:46;18.83;;;17.43;;
20044;SDS011;10183;47.808;9.476;2023-10-31T10:38:32;18.40;;;17.00;;
20044;SDS011;10183;47.808;9.476;2023-10-31T10:41:21;16.50;;;15.23;;
20044;SDS011;10183;47.808;9.476;2023-10-31T10:44:09;17.57;;;16.27;;
20044;SDS011;10183;47.808;9.476;2023-10-31T10:47:01;18.23;;;16.73;;
20044;SDS011;10183;47.808;9.476;2023-10-31T10:49:49;19.43;;;17.83;;
20044;SDS011;10183;47.808;9.476;2023-10-31T10:52:53;18.77;;;17.27;;
20044;SDS011;10183;47.808;9.476;2023-10-31T10:55:46;18.10;;;16.70;;
20044;SDS011;10183;47.808;9.476;2023-10-31T10:58:41;19.60;;;18.00;;
20044;SDS011;10183;47.808;9.476;2023-10-31T11:01:36;22.53;;;20.63;;
20044;SDS011;10183;47.808;9.476;2023-10-31T11:04:23;20.83;;;19.23;;
20044;SDS011;10183;47.808;9.476;2023-10-31T11:07:10;21.97;;;20.17;;
20044;SDS011;10183;47.808;9.476;2023-10-31T11:09:57;23.23;;;21.23;;
20044;SDS011;10183;47.808;9.476;2023-10-31T11:12:47;24.97;;;22.87;;
20044;SDS011;10183;47.808;9.476;2023-10-31T11:15:33;26.77;;;24.57;;
20044;SDS011;10183;47.808;9.476;2023-10-31T11:18:19;30.13;;;27.53;;
20044;SDS011;10183;47.808;9.476;2023-10-31T11:21:06;22.53;;;20.53;;
20044;SDS011;10183;47.808;9.476;2023-10-31T11:23:56;25.07;;;22.87;;
20044;SDS011;10183;47.808;9.476;2023-10-31T11:26:53;21.83;;;19.90;;
20044;SDS011;10183;47.808;9.476;2023-10-31T11:29:43;22.60;;;20.60;;
20044;SDS011;10183;47.808;9.476;2023-10-31T11:32:31;22.63;;;20.63;;
20044;SDS011;10183;47.808;9.476;2023-10-31T11:35:17;26.67;;;24.37;;
20044;SDS011;10183;47.808;9.476;2023-10-31T11:38:05;27.10;;;24.20;;
20044;SDS011;10183;47.808;9.476;2023-10-31T11:41:00;26.70;;;24.40;;
20044;SDS011;10183;47.808;9.476;2023-10-31T11:46:33;26.77;;;24.37;;
20044;SDS011;10183;47.808;9.476;2023-10-31T11:52:32;28.47;;;25.97;;
20044;SDS011;10183;47.808;9.476;2023-10-31T11:55:18;32.50;;;29.70;;
20044;SDS011;10183;47.808;9.476;2023-10-31T11:58:14;31.20;;;28.13;;
20044;SDS011;10183;47.808;9.476;2023-10-31T12:01:08;32.63;;;29.73;;
20044;SDS011;10183;47.808;9.476;2023-10-31T12:03:54;32.93;;;29.93;;
20044;SDS011;10183;47.808;9.476;2023-10-31T12:06:40;31.80;;;28.93;;
20044;SDS011;10183;47.808;9.476;2023-10-31T12:09:26;28.20;;;25.63;;
20044;SDS011;10183;47.808;9.476;2023-10-31T12:12:13;29.73;;;27.13;;
20044;SDS011;10183;47.808;9.476;2023-10-31T12:15:08;31.83;;;24.10;;
20044;SDS011;10183;47.808;9.476;2023-10-31T12:17:58;26.30;;;24.10;;
20044;SDS011;10183;47.808;9.476;2023-10-31T12:20:48;24.93;;;22.83;;
20044;SDS011;10183;47.808;9.476;2023-10-31T12:23:36;25.20;;;23.10;;
20044;SDS011;10183;47.808;9.476;2023-10-31T12:26:22;25.80;;;23.60;;
20044;SDS011;10183;47.808;9.476;2023-10-31T12:32:03;30.10;;;27.50;;
20044;SDS011;10183;47.808;9.476;2023-10-31T12:34:49;29.90;;;27.30;;
20044;SDS011;10183;47.808;9.476;2023-10-31T12:37:35;32.87;;;30.07;;
20044;SDS011;10183;47.808;9.476;2023-10-31T12:40:22;30.93;;;28.20;;
20044;SDS011;10183;47.808;9.476;2023-10-31T12:43:08;21.73;;;19.73;;
20044;SDS011;10183;47.808;9.476;2023-10-31T12:45:55;24.63;;;22.33;;
20044;SDS011;10183;47.808;9.476;2023-10-31T12:48:41;26.47;;;24.10;;
20044;SDS011;10183;47.808;9.476;2023-10-31T12:51:27;24.90;;;22.70;;
20044;SDS011;10183;47.808;9.476;2023-10-31T12:54:13;24.93;;;22.63;;
20044;SDS011;10183;47.808;9.476;2023-10-31T12:57:13;24.57;;;22.27;;
20044;SDS011;10183;47.808;9.476;2023-10-31T12:59:59;21.03;;;19.13;;
20044;SDS011;10183;47.808;9.476;2023-10-31T13:02:45;23.20;;;21.10;;
20044;SDS011;10183;47.808;9.476;2023-10-31T13:05:31;24.93;;;22.73;;
20044;SDS011;10183;47.808;9.476;2023-10-31T13:08:22;21.93;;;19.93;;
20044;SDS011;10183;47.808;9.476;2023-10-31T13:11:08;21.00;;;19.20;;
20044;SDS011;10183;47.808;9.476;2023-10-31T13:13:54;20.10;;;18.40;;
20044;SDS011;10183;47.808;9.476;2023-10-31T13:16:40;21.43;;;19.63;;
20044;SDS011;10183;47.808;9.476;2023-10-31T13:19:26;25.03;;;22.80;;
20044;SDS011;10183;47.808;9.476;2023-10-31T13:22:12;22.80;;;20.83;;
20044;SDS011;10183;47.808;9.476;2023-10-31T13:24:58;22.90;;;21.00;;
20044;SDS011;10183;47.808;9.476;2023-10-31T13:27:44;19.43;;;17.83;;
20044;SDS011;10183;47.808;9.476;2023-10-31T13:30:32;19.73;;;18.17;;
20044;SDS011;10183;47.808;9.476;2023-10-31T13:33:18;20.77;;;19.07;;
20044;SDS011;10183;47.808;9.476;2023-10-31T13:36:04;21.10;;;19.30;;
20044;SDS011;10183;47.808;9.476;2023-10-31T13:38:51;19.07;;;17.37;;
20044;SDS011;10183;47.808;9.476;2023-10-31T13:41:37;20.53;;;18.60;;
20044;SDS011;10183;47.808;9.476;2023-10-31T13:44:24;19.37;;;17.67;;
20044;SDS011;10183;47.808;9.476;2023-10-31T13:47:10;18.67;;;17.10;;
20044;SDS011;10183;47.808;9.476;2023-10-31T13:49:56;17.60;;;16.20;;
20044;SDS011;10183;47.808;9.476;2023-10-31T13:52:42;18.60;;;17.10;;
20044;SDS011;10183;47.808;9.476;2023-10-31T13:55:28;19.33;;;17.83;;
20044;SDS011;10183;47.808;9.476;2023-10-31T13:58:14;19.67;;;18.17;;
20044;SDS011;10183;47.808;9.476;2023-10-31T14:01:00;19.80;;;18.20;;
20044;SDS011;10183;47.808;9.476;2023-10-31T14:03:46;20.23;;;18.63;;
20044;SDS011;10183;47.808;9.476;2023-10-31T14:06:32;19.87;;;18.27;;
20044;SDS011;10183;47.808;9.476;2023-10-31T14:09:18;21.30;;;19.60;;
20044;SDS011;10183;47.808;9.476;2023-10-31T14:12:04;19.00;;;17.50;;
20044;SDS011;10183;47.808;9.476;2023-10-31T14:14:53;18.03;;;16.53;;
20044;SDS011;10183;47.808;9.476;2023-10-31T14:17:39;18.20;;;16.70;;
20044;SDS011;10183;47.808;9.476;2023-10-31T14:20:25;18.53;;;16.83;;
20044;SDS011;10183;47.808;9.476;2023-10-31T14:23:11;17.43;;;16.13;;
20044;SDS011;10183;47.808;9.476;2023-10-31T14:25:58;18.70;;;17.20;;
20044;SDS011;10183;47.808;9.476;2023-10-31T14:28:45;17.50;;;16.00;;
20044;SDS011;10183;47.808;9.476;2023-10-31T14:31:31;16.70;;;15.33;;
20044;SDS011;10183;47.808;9.476;2023-10-31T14:34:17;16.13;;;14.83;;
20044;SDS011;10183;47.808;9.476;2023-10-31T14:37:03;16.87;;;15.57;;
20044;SDS011;10183;47.808;9.476;2023-10-31T14:39:51;16.60;;;14.87;;
20044;SDS011;10183;47.808;9.476;2023-10-31T14:42:37;15.90;;;14.60;;
20044;SDS011;10183;47.808;9.476;2023-10-31T14:45:23;16.63;;;15.33;;
20044;SDS011;10183;47.808;9.476;2023-10-31T14:48:09;16.37;;;15.07;;
20044;SDS011;10183;47.808;9.476;2023-10-31T14:50:55;15.50;;;14.40;;
20044;SDS011;10183;47.808;9.476;2023-10-31T14:53:42;15.90;;;14.80;;
20044;SDS011;10183;47.808;9.476;2023-10-31T14:56:28;14.77;;;13.67;;
20044;SDS011;10183;47.808;9.476;2023-10-31T14:59:15;15.47;;;14.37;;
20044;SDS011;10183;47.808;9.476;2023-10-31T15:02:00;16.20;;;15.10;;
20044;SDS011;10183;47.808;9.476;2023-10-31T15:04:46;14.37;;;13.37;;
20044;SDS011;10183;47.808;9.476;2023-10-31T15:07:32;14.40;;;13.30;;
20044;SDS011;10183;47.808;9.476;2023-10-31T15:10:19;13.40;;;12.40;;
20044;SDS011;10183;47.808;9.476;2023-10-31T15:13:05;14.43;;;13.27;;
20044;SDS011;10183;47.808;9.476;2023-10-31T15:15:51;13.90;;;13.00;;
20044;SDS011;10183;47.808;9.476;2023-10-31T15:18:37;13.27;;;12.37;;
20044;SDS011;10183;47.808;9.476;2023-10-31T15:21:23;12.87;;;11.97;;
20044;SDS011;10183;47.808;9.476;2023-10-31T15:24:09;13.07;;;12.17;;
20044;SDS011;10183;47.808;9.476;2023-10-31T15:26:57;15.50;;;14.10;;
20044;SDS011;10183;47.808;9.476;2023-10-31T15:29:44;16.80;;;15.30;;
20044;SDS011;10183;47.808;9.476;2023-10-31T15:32:30;15.60;;;14.20;;
20044;SDS011;10183;47.808;9.476;2023-10-31T15:35:17;14.13;;;13.03;;
20044;SDS011;10183;47.808;9.476;2023-10-31T15:38:03;16.27;;;14.90;;
20044;SDS011;10183;47.808;9.476;2023-10-31T15:40:51;16.53;;;15.10;;
20044;SDS011;10183;47.808;9.476;2023-10-31T15:43:37;15.60;;;14.30;;
20044;SDS011;10183;47.808;9.476;2023-10-31T15:46:23;15.37;;;14.17;;
20044;SDS011;10183;47.808;9.476;2023-10-31T15:49:10;14.60;;;13.50;;
20044;SDS011;10183;47.808;9.476;2023-10-31T15:51:56;16.23;;;15.00;;
20044;SDS011;10183;47.808;9.476;2023-10-31T15:54:42;17.03;;;15.77;;
20044;SDS011;10183;47.808;9.476;2023-10-31T15:57:29;16.40;;;15.30;;
20044;SDS011;10183;47.808;9.476;2023-10-31T16:00:16;16.60;;;15.70;;
20044;SDS011;10183;47.808;9.476;2023-10-31T16:03:03;16.80;;;15.37;;
20044;SDS011;10183;47.808;9.476;2023-10-31T16:05:50;18.97;;;17.47;;
20044;SDS011;10183;47.808;9.476;2023-10-31T16:08:37;13.17;;;12.37;;
20044;SDS011;10183;47.808;9.476;2023-10-31T16:11:26;13.50;;;12.80;;
20044;SDS011;10183;47.808;9.476;2023-10-31T16:14:12;13.67;;;12.97;;
20044;SDS011;10183;47.808;9.476;2023-10-31T16:16:58;13.90;;;13.20;;
20044;SDS011;10183;47.808;9.476;2023-10-31T16:19:44;13.83;;;12.90;;
20044;SDS011;10183;47.808;9.476;2023-10-31T16:22:30;13.90;;;13.10;;